Time;durP1;ratioP1;P1;durP2;ratioP2;P2;SDS_P1;SDS_P2;PMS_P1;PMS_P2;Temp;Humidity;BMP_temperature;BMP_pressure;BME280_temperature;BME280_humidity;BME280_pressure;Samples;Min_cycle;Max_cycle;Signal;HPM_P1;HPM_P2
2023/03/05 00:04:33;;;;;;;26.73;15.80;;;5.50;99.90;;;;;;10306750;28;20236;-71
2023/03/05 00:09:33;;;;;;;29.13;16.27;;;5.60;99.90;;;;;;10312362;28;20689;-71
2023/03/05 00:14:34;;;;;;;30.83;16.20;;;5.50;99.90;;;;;;10315573;28;20225;-71
2023/03/05 00:19:34;;;;;;;26.83;15.77;;;5.50;99.90;;;;;;10308898;28;20653;-72
2023/03/05 00:24:35;;;;;;;30.63;16.13;;;5.50;99.90;;;;;;10313724;28;20214;-72
2023/03/05 00:29:35;;;;;;;31.73;17.37;;;5.50;99.90;;;;;;10307849;28;20232;-70
2023/03/05 00:34:36;;;;;;;27.23;16.23;;;5.50;99.90;;;;;;10306596;28;20700;-70
2023/03/05 00:39:37;;;;;;;22.93;14.53;;;5.50;99.90;;;;;;10307760;28;20226;-71
2023/03/05 00:44:37;;;;;;;27.90;15.50;;;5.50;99.90;;;;;;10309490;28;20225;-71
2023/03/05 00:49:38;;;;;;;24.17;14.33;;;5.50;99.90;;;;;;10316671;28;20642;-71
2023/03/05 00:54:38;;;;;;;35.80;15.53;;;5.40;99.90;;;;;;10312013;28;20221;-70
2023/03/05 00:59:39;;;;;;;26.67;15.23;;;5.50;99.90;;;;;;10315355;28;20228;-70
2023/03/05 01:04:40;;;;;;;24.17;14.27;;;5.50;99.90;;;;;;10338625;28;20224;-70
2023/03/05 01:09:40;;;;;;;24.57;14.87;;;5.50;99.90;;;;;;10314624;28;20237;-70
2023/03/05 01:14:41;;;;;;;24.77;14.57;;;5.50;99.90;;;;;;10314590;28;20233;-70
2023/03/05 01:19:42;;;;;;;26.83;15.57;;;5.50;99.90;;;;;;10325606;28;20244;-70
2023/03/05 01:24:42;;;;;;;26.77;15.10;;;5.40;99.90;;;;;;10320640;28;20288;-69
2023/03/05 01:29:43;;;;;;;23.47;14.47;;;5.50;99.90;;;;;;10332834;28;20233;-70
2023/03/05 01:34:43;;;;;;;21.67;13.87;;;5.50;99.90;;;;;;10319212;28;20222;-70
2023/03/05 01:39:47;;;;;;;25.77;14.10;;;5.50;99.90;;;;;;10306477;28;20594;-70
2023/03/05 01:45:09;;;;;;;26.33;16.17;;;5.50;99.90;;;;;;10319016;28;20218;-70
2023/03/05 01:50:18;;;;;;;23.13;13.87;;;5.40;99.90;;;;;;10316063;28;20260;-70
2023/03/05 01:55:21;;;;;;;23.57;13.70;;;5.40;99.90;;;;;;10314057;28;20302;-71
2023/03/05 02:00:41;;;;;;;26.30;15.47;;;5.40;99.90;;;;;;10319523;28;20676;-69
2023/03/05 02:05:43;;;;;;;26.23;14.60;;;5.30;99.90;;;;;;10317090;28;20221;-69
2023/03/05 02:10:49;;;;;;;24.57;15.07;;;5.30;99.90;;;;;;10318365;28;20222;-69
2023/03/05 02:15:52;;;;;;;25.63;15.80;;;5.30;99.90;;;;;;10311467;28;20289;-70
2023/03/05 02:20:55;;;;;;;27.57;16.10;;;5.30;99.90;;;;;;10313267;28;20272;-69
2023/03/05 02:25:56;;;;;;;32.93;16.07;;;5.30;99.90;;;;;;10311461;28;20295;-70
2023/03/05 02:30:56;;;;;;;28.43;14.87;;;5.30;99.90;;;;;;10312426;28;20226;-71
2023/03/05 02:35:57;;;;;;;26.00;14.77;;;5.20;99.90;;;;;;10307479;28;20253;-71
2023/03/05 02:40:58;;;;;;;26.90;14.80;;;5.20;99.90;;;;;;10311100;28;20229;-69
2023/03/05 02:45:59;;;;;;;27.83;14.90;;;5.20;99.90;;;;;;10311001;28;20225;-71
2023/03/05 02:51:04;;;;;;;25.57;14.20;;;5.20;99.90;;;;;;10314964;28;20258;-71
2023/03/05 02:56:05;;;;;;;24.63;15.40;;;5.20;99.90;;;;;;10313912;28;20222;-70
2023/03/05 03:01:06;;;;;;;28.93;15.70;;;5.20;99.90;;;;;;10313860;28;20707;-71
2023/03/05 03:06:07;;;;;;;24.57;14.57;;;5.20;99.90;;;;;;10314517;28;20232;-71
2023/03/05 03:11:11;;;;;;;22.00;14.17;;;5.20;99.90;;;;;;10316225;28;20245;-71
2023/03/05 03:16:14;;;;;;;25.53;14.37;;;5.20;99.90;;;;;;10305415;28;20217;-71
2023/03/05 03:21:18;;;;;;;23.87;13.23;;;5.20;99.90;;;;;;10311687;28;20225;-69
2023/03/05 03:26:19;;;;;;;26.00;14.27;;;5.10;99.90;;;;;;10328525;28;20241;-69
2023/03/05 03:31:19;;;;;;;20.70;12.63;;;5.20;99.90;;;;;;10329114;28;20231;-70
2023/03/05 03:36:20;;;;;;;22.83;12.73;;;5.20;99.90;;;;;;10312363;28;20333;-69
2023/03/05 03:41:20;;;;;;;21.87;12.47;;;5.20;99.90;;;;;;10313152;28;20300;-70
2023/03/05 03:46:21;;;;;;;21.37;12.60;;;5.20;99.90;;;;;;10309879;28;20217;-70
2023/03/05 03:51:21;;;;;;;20.20;12.17;;;5.20;99.90;;;;;;10313035;28;20226;-70
2023/03/05 03:56:22;;;;;;;14.80;9.73;;;5.20;99.90;;;;;;10302147;28;20284;-72
2023/03/05 04:01:23;;;;;;;13.17;9.00;;;5.20;99.90;;;;;;10309106;28;20258;-71
2023/03/05 04:06:23;;;;;;;17.43;9.10;;;5.20;99.90;;;;;;10309835;28;20234;-71
2023/03/05 04:11:24;;;;;;;15.53;8.00;;;5.30;99.90;;;;;;10319376;28;20723;-69
2023/03/05 04:16:25;;;;;;;13.10;7.70;;;5.30;99.90;;;;;;10308919;28;20268;-70
2023/03/05 04:21:25;;;;;;;12.07;6.50;;;5.30;99.90;;;;;;10308481;28;20222;-71
2023/03/05 04:26:26;;;;;;;11.37;7.40;;;5.30;99.90;;;;;;10303028;28;20322;-70
2023/03/05 04:31:26;;;;;;;11.43;7.37;;;5.30;99.90;;;;;;10322786;28;20232;-71
2023/03/05 04:36:27;;;;;;;11.70;7.33;;;5.30;99.90;;;;;;10309770;28;20284;-71
2023/03/05 04:41:27;;;;;;;9.30;6.87;;;5.30;99.90;;;;;;10322159;28;20692;-71
2023/03/05 04:46:28;;;;;;;10.43;7.23;;;5.20;99.90;;;;;;10322011;28;20218;-69
2023/03/05 04:51:28;;;;;;;9.33;6.63;;;5.30;99.90;;;;;;10316060;28;20225;-69
2023/03/05 04:56:29;;;;;;;12.30;6.97;;;5.30;99.90;;;;;;10326405;28;20600;-70
2023/03/05 05:01:30;;;;;;;10.87;6.70;;;5.30;99.90;;;;;;10316055;28;20232;-71
2023/03/05 05:06:30;;;;;;;12.47;7.57;;;5.30;99.90;;;;;;10309836;28;20630;-71
2023/03/05 05:11:31;;;;;;;11.77;7.07;;;5.20;99.90;;;;;;10323254;28;20223;-69
2023/03/05 05:16:31;;;;;;;18.33;7.53;;;5.20;99.90;;;;;;10321174;28;20221;-71
2023/03/05 05:21:32;;;;;;;10.60;6.70;;;5.20;99.90;;;;;;10311373;28;20226;-70
2023/03/05 05:26:32;;;;;;;13.50;6.83;;;5.20;99.90;;;;;;10322481;28;20323;-71
2023/03/05 05:31:33;;;;;;;13.47;7.33;;;5.20;99.90;;;;;;10329974;28;20310;-72
2023/03/05 05:36:34;;;;;;;11.67;6.70;;;5.20;99.90;;;;;;10323303;28;20223;-70
2023/03/05 05:41:34;;;;;;;15.53;7.17;;;5.20;99.90;;;;;;10317428;28;20379;-71
2023/03/05 05:46:35;;;;;;;12.90;6.07;;;5.20;99.90;;;;;;10306736;28;20223;-71
2023/03/05 05:51:35;;;;;;;10.97;5.97;;;5.20;99.90;;;;;;10313678;28;20234;-69
2023/03/05 05:56:36;;;;;;;10.03;5.70;;;5.20;99.90;;;;;;10329816;28;20795;-70
2023/03/05 06:01:36;;;;;;;12.43;5.57;;;5.20;99.90;;;;;;10321040;28;20237;-70
2023/03/05 06:06:37;;;;;;;11.07;5.57;;;5.20;99.90;;;;;;10319900;28;20229;-71
2023/03/05 06:11:38;;;;;;;8.33;4.50;;;5.20;99.90;;;;;;10316582;28;20765;-70
2023/03/05 06:16:39;;;;;;;8.93;5.23;;;5.30;99.90;;;;;;10312545;28;20223;-71
2023/03/05 06:21:40;;;;;;;9.80;5.60;;;5.30;99.90;;;;;;10324473;28;20237;-74
2023/03/05 06:26:40;;;;;;;10.17;5.60;;;5.30;99.90;;;;;;10310208;28;20749;-68
2023/03/05 06:31:41;;;;;;;10.07;5.83;;;5.40;99.90;;;;;;10325188;28;20602;-71
2023/03/05 06:36:43;;;;;;;9.77;5.90;;;5.40;99.90;;;;;;10327313;28;20242;-70
2023/03/05 06:41:43;;;;;;;14.83;7.80;;;5.40;99.90;;;;;;10322485;28;20225;-71
2023/03/05 06:46:44;;;;;;;9.93;5.73;;;5.40;99.90;;;;;;10326316;28;20700;-69
2023/03/05 06:51:44;;;;;;;14.47;9.20;;;5.40;99.90;;;;;;10325971;28;20221;-74
2023/03/05 06:56:46;;;;;;;22.33;12.27;;;5.40;99.90;;;;;;10333422;28;20253;-70
2023/03/05 07:01:47;;;;;;;22.27;12.17;;;5.50;99.90;;;;;;10326263;28;20313;-68
2023/03/05 07:06:48;;;;;;;18.10;11.20;;;5.60;99.90;;;;;;10323864;28;20712;-75
2023/03/05 07:11:48;;;;;;;21.30;12.20;;;5.60;99.90;;;;;;10324996;28;20316;-74
2023/03/05 07:16:49;;;;;;;19.20;11.17;;;5.60;99.90;;;;;;10324827;28;20222;-72
2023/03/05 07:21:50;;;;;;;22.93;11.80;;;5.70;99.90;;;;;;10311140;28;20229;-69
2023/03/05 07:26:52;;;;;;;17.63;11.07;;;5.70;99.90;;;;;;10317891;28;20760;-69
2023/03/05 07:31:53;;;;;;;22.20;11.57;;;5.80;99.90;;;;;;10324195;28;20226;-69
2023/03/05 07:36:53;;;;;;;18.83;11.43;;;5.80;99.90;;;;;;10316496;28;20227;-69
2023/03/05 07:41:54;;;;;;;19.53;10.20;;;5.80;99.90;;;;;;10314314;28;20242;-69
2023/03/05 07:46:58;;;;;;;19.53;10.50;;;5.80;99.90;;;;;;10315825;28;20233;-68
2023/03/05 07:51:58;;;;;;;18.20;9.70;;;5.70;99.90;;;;;;10318526;28;20225;-68
2023/03/05 07:56:59;;;;;;;15.70;9.00;;;5.80;99.90;;;;;;10325031;28;20739;-69
2023/03/05 08:01:59;;;;;;;15.90;8.83;;;5.90;99.90;;;;;;10326187;28;20803;-69
2023/03/05 08:07:00;;;;;;;14.87;8.27;;;5.90;99.90;;;;;;10332908;28;20680;-72
2023/03/05 08:12:00;;;;;;;16.43;8.87;;;6.00;99.90;;;;;;10332674;28;20232;-69
2023/03/05 08:17:03;;;;;;;13.03;7.73;;;6.20;99.90;;;;;;10310797;28;20703;-70
2023/03/05 08:22:04;;;;;;;14.37;8.63;;;6.20;99.90;;;;;;10319941;28;20733;-72
2023/03/05 08:27:04;;;;;;;14.67;8.07;;;6.40;99.90;;;;;;10312935;28;20267;-73
2023/03/05 08:32:05;;;;;;;14.43;7.70;;;6.40;99.90;;;;;;10314451;28;20225;-73
2023/03/05 08:37:08;;;;;;;18.73;8.53;;;6.50;99.90;;;;;;10312626;28;20215;-72
2023/03/05 08:42:08;;;;;;;13.47;8.40;;;6.60;99.90;;;;;;10314041;28;20554;-74
2023/03/05 08:47:09;;;;;;;12.30;7.70;;;6.70;99.90;;;;;;10323281;28;20221;-75
2023/03/05 08:52:09;;;;;;;12.03;7.37;;;6.80;99.90;;;;;;10315798;28;20373;-71
2023/03/05 08:57:10;;;;;;;13.03;7.77;;;6.90;99.90;;;;;;10326795;28;20319;-73
2023/03/05 09:02:14;;;;;;;15.53;7.73;;;6.90;99.90;;;;;;10323336;28;20247;-73
2023/03/05 09:07:14;;;;;;;13.10;7.80;;;6.80;99.90;;;;;;10313416;28;20314;-73
2023/03/05 09:12:15;;;;;;;10.90;7.00;;;6.90;99.90;;;;;;10310844;28;20231;-74
2023/03/05 09:17:15;;;;;;;9.53;6.60;;;7.00;99.90;;;;;;10315174;28;20218;-72
2023/03/05 09:22:16;;;;;;;11.37;6.47;;;7.00;99.90;;;;;;10328948;28;20576;-70
2023/03/05 09:27:16;;;;;;;7.97;5.53;;;7.00;99.90;;;;;;10302037;28;20301;-71
2023/03/05 09:32:17;;;;;;;10.33;5.97;;;7.20;99.90;;;;;;10324017;28;20210;-68
2023/03/05 09:37:18;;;;;;;11.40;5.70;;;7.30;99.90;;;;;;10325279;28;20689;-68
2023/03/05 09:42:47;;;;;;;9.47;6.07;;;7.50;99.90;;;;;;10328261;28;20213;-69
2023/03/05 09:48:14;;;;;;;9.93;5.73;;;7.70;99.90;;;;;;10326449;28;20236;-71
2023/03/05 09:53:29;;;;;;;10.40;5.67;;;7.90;99.90;;;;;;10327099;28;20323;-71
2023/03/05 09:58:42;;;;;;;11.77;5.37;;;8.00;99.90;;;;;;10326148;28;20262;-72
2023/03/05 10:03:53;;;;;;;7.77;5.07;;;8.10;99.90;;;;;;10320692;28;20729;-72
2023/03/05 10:09:01;;;;;;;8.33;5.27;;;8.10;99.90;;;;;;10326374;28;20229;-73
2023/03/05 10:14:06;;;;;;;7.67;5.40;;;8.00;99.90;;;;;;10321472;28;20224;-70
2023/03/05 10:19:41;;;;;;;9.07;5.70;;;8.00;99.90;;;;;;10324043;28;20283;-73
2023/03/05 10:24:56;;;;;;;9.33;5.17;;;8.00;99.90;;;;;;10304601;28;20580;-72
2023/03/05 10:30:44;;;;;;;9.57;5.33;;;7.90;99.90;;;;;;10322652;28;20228;-75
2023/03/05 10:35:53;;;;;;;8.10;4.70;;;8.00;99.90;;;;;;10299317;28;20255;-73
2023/03/05 10:40:54;;;;;;;8.13;5.03;;;8.00;99.90;;;;;;10319128;28;20243;-75
2023/03/05 10:46:04;;;;;;;10.30;5.77;;;7.90;99.90;;;;;;10310956;28;20245;-76
2023/03/05 10:51:33;;;;;;;8.13;5.07;;;7.90;99.90;;;;;;10315512;28;20708;-74
2023/03/05 10:57:12;;;;;;;5.70;4.23;;;7.90;99.90;;;;;;10324613;28;20229;-73
2023/03/05 11:02:13;;;;;;;10.77;5.00;;;8.00;99.90;;;;;;10308231;28;20237;-73
2023/03/05 11:07:13;;;;;;;7.50;4.63;;;7.90;99.90;;;;;;10303938;28;20795;-76
2023/03/05 11:12:20;;;;;;;6.70;4.47;;;7.90;99.90;;;;;;10311097;28;20218;-78
2023/03/05 11:17:29;;;;;;;9.43;5.10;;;7.90;99.90;;;;;;10308982;28;20232;-78
2023/03/05 11:22:34;;;;;;;6.03;3.80;;;7.90;99.90;;;;;;10315841;28;20225;-76
2023/03/05 11:27:48;;;;;;;5.30;3.90;;;8.00;99.90;;;;;;10315738;28;20251;-74
2023/03/05 11:32:49;;;;;;;6.27;3.50;;;8.20;99.90;;;;;;10308517;28;20229;-74
2023/03/05 11:38:03;;;;;;;6.33;4.37;;;8.30;99.90;;;;;;10309200;28;20232;-75
2023/03/05 11:43:04;;;;;;;6.67;3.93;;;8.50;99.90;;;;;;10316123;28;20236;-75
2023/03/05 11:48:16;;;;;;;4.53;3.40;;;8.70;99.90;;;;;;10311695;28;20741;-74
2023/03/05 11:53:24;;;;;;;5.30;3.23;;;8.80;99.90;;;;;;10321282;28;20230;-75
2023/03/05 11:58:56;;;;;;;6.17;4.10;;;8.60;99.90;;;;;;10311435;28;20226;-75
2023/03/05 12:03:57;;;;;;;6.37;4.00;;;8.50;99.90;;;;;;10308243;28;20214;-75
2023/03/05 12:09:02;;;;;;;5.90;4.00;;;8.30;99.90;;;;;;10301841;28;20262;-74
2023/03/05 12:14:41;;;;;;;6.27;4.20;;;8.30;99.90;;;;;;10313832;28;20708;-72
2023/03/05 12:20:12;;;;;;;6.40;4.47;;;8.20;99.90;;;;;;10322256;28;20229;-76
2023/03/05 12:25:33;;;;;;;9.00;4.60;;;8.30;99.90;;;;;;10307367;28;20268;-75
2023/03/05 12:30:34;;;;;;;7.60;4.63;;;8.50;99.90;;;;;;10316260;28;20764;-75
2023/03/05 12:35:37;;;;;;;7.53;4.50;;;8.60;99.90;;;;;;10308779;28;20230;-73
2023/03/05 12:40:37;;;;;;;8.73;5.07;;;8.70;99.90;;;;;;10317626;28;20232;-71
2023/03/05 12:45:40;;;;;;;5.33;3.80;;;9.10;99.90;;;;;;10307079;28;20593;-72
2023/03/05 12:50:43;;;;;;;5.90;3.50;;;9.30;99.90;;;;;;10308945;28;20725;-74
2023/03/05 12:55:47;;;;;;;8.03;3.73;;;9.30;99.90;;;;;;10312969;28;20284;-71
2023/03/05 13:01:22;;;;;;;6.70;3.53;;;9.30;99.90;;;;;;10325489;28;20241;-72
2023/03/05 13:06:29;;;;;;;15.23;3.80;;;9.90;99.90;;;;;;10322828;28;20338;-73
2023/03/05 13:11:33;;;;;;;4.70;3.47;;;10.40;99.90;;;;;;10319485;28;20268;-74
2023/03/05 13:16:38;;;;;;;6.17;3.63;;;10.50;99.90;;;;;;10322234;28;20250;-74
2023/03/05 13:21:38;;;;;;;6.60;3.90;;;10.50;99.20;;;;;;10332219;28;20535;-76
2023/03/05 13:26:40;;;;;;;5.47;3.10;;;10.50;98.90;;;;;;10341792;28;20214;-74
2023/03/05 13:31:40;;;;;;;4.67;3.30;;;10.40;98.40;;;;;;10326181;28;20685;-77
2023/03/05 13:36:47;;;;;;;6.23;3.40;;;10.20;98.90;;;;;;10310531;28;20214;-76
2023/03/05 13:42:13;;;;;;;5.47;3.00;;;10.10;98.70;;;;;;10320033;28;20242;-76
2023/03/05 13:47:20;;;;;;;6.30;3.50;;;10.00;98.60;;;;;;10294994;28;20226;-76
2023/03/05 13:52:26;;;;;;;5.27;3.07;;;10.00;98.90;;;;;;10320702;28;20226;-77
2023/03/05 13:57:37;;;;;;;4.13;3.40;;;9.70;98.60;;;;;;10319981;28;20579;-76
2023/03/05 14:02:42;;;;;;;6.73;3.67;;;9.30;99.30;;;;;;10309917;28;20250;-75
2023/03/05 14:07:47;;;;;;;6.47;3.40;;;8.90;99.90;;;;;;10302212;28;20326;-75
2023/03/05 14:12:50;;;;;;;8.00;3.70;;;8.50;99.90;;;;;;10313858;28;20281;-74
2023/03/05 14:17:51;;;;;;;5.17;3.53;;;8.20;99.90;;;;;;10313376;28;20571;-76
2023/03/05 14:23:00;;;;;;;6.10;3.40;;;8.10;99.90;;;;;;10318509;28;20216;-77
2023/03/05 14:28:18;;;;;;;3.60;2.63;;;8.10;99.90;;;;;;10315743;28;20320;-75
2023/03/05 14:33:32;;;;;;;2.73;2.30;;;8.10;99.90;;;;;;10313498;28;20230;-77
2023/03/05 14:38:33;;;;;;;3.13;2.73;;;8.30;99.90;;;;;;10313685;28;20228;-74
2023/03/05 14:43:34;;;;;;;4.73;3.07;;;8.60;99.20;;;;;;10313671;28;20256;-76
2023/03/05 14:48:34;;;;;;;3.67;3.00;;;8.60;99.00;;;;;;10310172;28;20229;-73
2023/03/05 14:53:41;;;;;;;5.63;2.80;;;8.60;99.50;;;;;;10314447;28;20225;-75
2023/03/05 14:58:42;;;;;;;9.53;3.47;;;8.50;99.40;;;;;;10309107;28;20232;-75
2023/03/05 15:03:45;;;;;;;4.83;2.90;;;8.60;99.90;;;;;;10314459;28;20591;-74
2023/03/05 15:08:46;;;;;;;3.90;2.90;;;8.50;99.90;;;;;;10316049;28;20295;-75
2023/03/05 15:13:48;;;;;;;4.77;2.83;;;8.50;99.90;;;;;;10318130;28;20572;-76
2023/03/05 15:18:49;;;;;;;4.67;2.80;;;8.40;99.90;;;;;;10308445;28;20243;-77
2023/03/05 15:23:50;;;;;;;4.50;2.47;;;8.30;99.50;;;;;;10315839;28;20601;-76
2023/03/05 15:28:50;;;;;;;5.10;2.90;;;8.10;99.60;;;;;;10322960;28;20312;-76
2023/03/05 15:33:51;;;;;;;5.30;3.43;;;7.90;99.90;;;;;;10309652;28;20307;-75
2023/03/05 15:38:52;;;;;;;4.27;3.27;;;7.70;99.90;;;;;;10306804;28;20275;-77
2023/03/05 15:43:52;;;;;;;4.23;3.37;;;7.60;99.90;;;;;;10309733;28;20295;-73
2023/03/05 15:54:50;;;;;;;9.73;3.20;;;7.50;99.90;;;;;;10309328;28;20222;-74
2023/03/05 15:59:53;;;;;;;5.33;3.57;;;7.40;99.90;;;;;;10310219;28;20229;-77
2023/03/05 16:04:53;;;;;;;9.00;4.20;;;7.20;99.90;;;;;;10310917;28;20647;-76
2023/03/05 16:09:56;;;;;;;6.97;3.97;;;7.20;99.90;;;;;;10314999;28;20229;-75
2023/03/05 16:14:57;;;;;;;4.43;3.73;;;7.10;99.90;;;;;;10319793;28;20279;-75
2023/03/05 16:19:57;;;;;;;6.33;3.67;;;7.00;99.90;;;;;;10315778;28;20236;-78
2023/03/05 16:25:00;;;;;;;6.40;4.20;;;7.00;99.90;;;;;;10315115;28;20308;-77
2023/03/05 16:30:01;;;;;;;6.53;4.13;;;6.90;99.90;;;;;;10322078;28;20692;-78
2023/03/05 16:35:01;;;;;;;6.37;3.93;;;6.90;99.90;;;;;;10316408;28;20252;-77
2023/03/05 16:40:02;;;;;;;5.43;3.90;;;6.90;99.90;;;;;;10323021;28;20224;-78
2023/03/05 16:45:04;;;;;;;5.97;4.07;;;6.80;99.90;;;;;;10320084;28;20260;-76
2023/03/05 16:50:06;;;;;;;7.00;3.67;;;6.80;99.90;;;;;;10330714;28;20701;-76
2023/03/05 16:55:07;;;;;;;6.97;4.00;;;6.80;99.90;;;;;;10327527;28;20759;-78
2023/03/05 17:00:10;;;;;;;6.13;3.90;;;6.80;99.90;;;;;;10320997;28;20214;-78
2023/03/05 17:05:11;;;;;;;7.93;3.60;;;6.70;99.90;;;;;;10328696;28;20195;-76
2023/03/05 17:10:12;;;;;;;6.77;4.20;;;6.60;99.90;;;;;;10307084;28;20186;-78
2023/03/05 17:15:12;;;;;;;6.67;4.03;;;6.60;99.90;;;;;;10331073;28;20182;-77
2023/03/05 17:20:13;;;;;;;7.17;4.77;;;6.50;99.90;;;;;;10338563;28;20222;-80
2023/03/05 17:25:13;;;;;;;6.83;4.43;;;6.50;99.90;;;;;;10326872;28;20178;-78
2023/03/05 17:30:14;;;;;;;6.13;4.27;;;6.50;99.90;;;;;;10321320;28;20244;-81
2023/03/05 17:35:20;;;;;;;7.23;4.53;;;6.40;99.90;;;;;;10309743;28;20189;-77
2023/03/05 17:40:22;;;;;;;8.57;4.60;;;6.40;99.90;;;;;;10322967;28;20216;-76
2023/03/05 17:45:23;;;;;;;5.87;4.17;;;6.30;99.90;;;;;;10317673;28;20193;-76
2023/03/05 17:50:23;;;;;;;6.53;4.40;;;6.30;99.90;;;;;;10314807;28;20221;-77
2023/03/05 17:55:24;;;;;;;7.33;4.43;;;6.30;99.90;;;;;;10316484;28;20236;-72
2023/03/05 18:00:28;;;;;;;7.80;4.53;;;6.20;99.90;;;;;;10319879;28;20245;-77
2023/03/05 18:05:32;;;;;;;7.43;4.67;;;6.20;99.90;;;;;;10305618;28;20236;-74
2023/03/05 18:10:33;;;;;;;7.90;4.73;;;6.20;99.90;;;;;;10327789;28;20782;-76
2023/03/05 18:15:34;;;;;;;6.33;4.50;;;6.20;99.90;;;;;;10324713;28;20240;-76
2023/03/05 18:20:36;;;;;;;7.80;5.30;;;6.10;99.90;;;;;;10312175;28;20257;-75
2023/03/05 18:25:36;;;;;;;8.20;4.80;;;6.10;99.90;;;;;;10312437;28;20233;-75
2023/03/05 18:30:39;;;;;;;8.63;5.80;;;6.10;99.90;;;;;;10316247;28;20219;-76
2023/03/05 18:35:39;;;;;;;10.83;5.63;;;6.10;99.90;;;;;;10309778;28;20231;-76
2023/03/05 18:40:41;;;;;;;6.70;5.07;;;6.10;99.90;;;;;;10311183;28;20240;-77
2023/03/05 18:45:42;;;;;;;9.27;5.30;;;6.10;99.90;;;;;;10309503;28;20245;-74
2023/03/05 18:50:43;;;;;;;10.83;6.17;;;6.00;99.90;;;;;;10319639;28;20226;-77
2023/03/05 18:55:44;;;;;;;10.23;5.43;;;6.00;99.90;;;;;;10323700;28;20222;-76
2023/03/05 19:00:45;;;;;;;8.70;5.47;;;6.00;99.90;;;;;;10310477;28;20313;-76
2023/03/05 19:05:46;;;;;;;8.63;5.63;;;6.00;99.90;;;;;;10325345;28;20214;-75
2023/03/05 19:10:47;;;;;;;8.27;5.13;;;6.00;99.90;;;;;;10309694;28;20281;-76
2023/03/05 19:15:47;;;;;;;9.83;5.57;;;6.00;99.90;;;;;;10322368;28;20236;-75
2023/03/05 19:21:07;;;;;;;10.53;5.60;;;6.00;99.90;;;;;;10314411;28;20291;-75
2023/03/05 19:26:08;;;;;;;8.43;5.40;;;6.00;99.90;;;;;;10313658;28;20218;-76
2023/03/05 19:31:08;;;;;;;11.10;6.20;;;6.00;99.90;;;;;;10314007;28;20230;-76
2023/03/05 19:36:10;;;;;;;8.27;6.00;;;6.00;99.90;;;;;;10309468;28;20223;-77
2023/03/05 19:41:12;;;;;;;9.03;5.93;;;6.00;99.90;;;;;;10304451;28;20233;-75
2023/03/05 19:46:12;;;;;;;6.43;4.53;;;6.00;99.90;;;;;;10308480;28;20287;-77
2023/03/05 19:51:18;;;;;;;6.20;4.23;;;5.90;99.90;;;;;;10318811;28;20305;-76
2023/03/05 19:56:19;;;;;;;7.47;4.90;;;5.90;99.90;;;;;;10310640;28;20214;-75
2023/03/05 20:01:25;;;;;;;6.67;4.67;;;5.90;99.90;;;;;;10318652;28;20226;-76
2023/03/05 20:06:27;;;;;;;7.60;4.33;;;5.90;99.90;;;;;;10310385;28;20575;-74
2023/03/05 20:11:28;;;;;;;8.37;5.00;;;5.90;99.90;;;;;;10316773;28;20221;-75
2023/03/05 20:16:31;;;;;;;8.07;5.40;;;5.90;99.90;;;;;;10315833;28;20301;-75
2023/03/05 20:21:35;;;;;;;10.10;5.97;;;5.90;99.90;;;;;;10317218;28;20227;-77
2023/03/05 20:26:37;;;;;;;11.47;6.47;;;5.90;99.90;;;;;;10316280;28;20226;-74
2023/03/05 20:31:39;;;;;;;10.37;6.80;;;5.90;99.90;;;;;;10317654;28;20218;-75
2023/03/05 20:36:40;;;;;;;9.83;6.27;;;5.80;99.90;;;;;;10322900;28;20233;-75
2023/03/05 20:41:40;;;;;;;11.57;6.60;;;5.80;99.90;;;;;;10315848;28;20250;-74
2023/03/05 20:46:50;;;;;;;11.17;6.20;;;5.80;99.90;;;;;;10306030;28;20235;-74
2023/03/05 20:51:51;;;;;;;9.03;6.63;;;5.80;99.90;;;;;;10317389;28;20577;-75
2023/03/05 20:56:51;;;;;;;11.10;6.10;;;5.80;99.90;;;;;;10322511;28;20218;-75
2023/03/05 21:01:52;;;;;;;10.00;6.23;;;5.80;99.90;;;;;;10325408;28;20661;-75
2023/03/05 21:06:53;;;;;;;10.53;6.10;;;5.70;99.90;;;;;;10320011;28;20216;-76
2023/03/05 21:11:53;;;;;;;9.50;5.67;;;5.70;99.90;;;;;;10312915;28;20325;-77
2023/03/05 21:16:54;;;;;;;9.73;6.10;;;5.70;99.90;;;;;;10327568;28;20214;-74
2023/03/05 21:21:54;;;;;;;9.63;6.27;;;5.70;99.90;;;;;;10313257;28;20232;-75
2023/03/05 21:26:55;;;;;;;10.57;6.17;;;5.70;99.90;;;;;;10307360;28;20223;-78
2023/03/05 21:31:56;;;;;;;9.33;6.23;;;5.70;99.90;;;;;;10315684;28;20225;-77
2023/03/05 21:36:56;;;;;;;9.13;6.00;;;5.70;99.90;;;;;;10315994;28;20237;-77
2023/03/05 21:41:57;;;;;;;8.67;5.90;;;5.60;99.90;;;;;;10313479;28;20241;-73
2023/03/05 21:46:58;;;;;;;11.63;6.37;;;5.60;99.90;;;;;;10322112;28;20225;-72
2023/03/05 21:52:11;;;;;;;12.77;6.93;;;5.60;99.90;;;;;;10324549;28;20790;-71
2023/03/05 21:57:11;;;;;;;9.17;6.43;;;5.60;99.90;;;;;;10309658;28;20218;-73
2023/03/05 22:02:14;;;;;;;9.77;6.47;;;5.60;99.90;;;;;;10322129;28;20591;-73
2023/03/05 22:07:16;;;;;;;9.80;6.50;;;5.60;99.90;;;;;;10329433;28;20229;-72
2023/03/05 22:12:25;;;;;;;8.60;6.67;;;5.60;99.90;;;;;;10329510;28;20756;-72
2023/03/05 22:17:26;;;;;;;9.27;6.70;;;5.60;99.90;;;;;;10320758;28;20301;-71
2023/03/05 22:22:26;;;;;;;9.47;6.50;;;5.60;99.90;;;;;;10320728;28;20234;-73
2023/03/05 22:27:27;;;;;;;12.03;6.37;;;5.60;99.90;;;;;;10321043;28;20720;-72
2023/03/05 22:32:32;;;;;;;8.73;6.23;;;5.50;99.90;;;;;;10320582;28;20233;-73
2023/03/05 22:37:33;;;;;;;8.03;6.20;;;5.50;99.90;;;;;;10320894;28;20222;-74
2023/03/05 22:42:34;;;;;;;9.10;6.10;;;5.50;99.90;;;;;;10325326;28;20895;-72
2023/03/05 22:47:35;;;;;;;6.80;5.57;;;5.50;99.90;;;;;;10312237;28;20220;-71
2023/03/05 22:52:35;;;;;;;8.97;6.40;;;5.50;99.90;;;;;;10318460;28;20694;-73
2023/03/05 22:57:36;;;;;;;9.17;6.43;;;5.50;99.90;;;;;;10316377;28;20222;-73
2023/03/05 23:02:36;;;;;;;8.67;6.17;;;5.50;99.90;;;;;;10331699;28;20217;-73
2023/03/05 23:07:39;;;;;;;8.40;6.10;;;5.60;99.90;;;;;;10330391;28;20252;-73
2023/03/05 23:12:44;;;;;;;8.67;6.00;;;5.50;99.90;;;;;;10319138;28;20226;-73
2023/03/05 23:17:45;;;;;;;10.47;6.30;;;5.50;99.90;;;;;;10311588;28;20250;-74
2023/03/05 23:22:47;;;;;;;10.00;6.13;;;5.50;99.90;;;;;;10326188;28;20231;-75
2023/03/05 23:27:49;;;;;;;8.40;5.63;;;5.40;99.90;;;;;;10324467;28;20972;-74
2023/03/05 23:32:52;;;;;;;9.37;5.73;;;5.40;99.90;;;;;;10317507;28;20230;-74
2023/03/05 23:37:54;;;;;;;8.73;5.93;;;5.40;99.90;;;;;;10324511;28;20218;-73
2023/03/05 23:42:55;;;;;;;9.23;5.57;;;5.40;99.90;;;;;;10318450;28;20253;-73
2023/03/05 23:47:56;;;;;;;8.93;5.90;;;5.40;99.90;;;;;;10316470;28;20271;-73
2023/03/05 23:52:58;;;;;;;9.63;5.83;;;5.40;99.90;;;;;;10321821;28;20635;-71
2023/03/05 23:57:59;;;;;;;8.20;5.30;;;5.30;99.90;;;;;;10313335;28;20228;-73
